sensor_id;sensor_type;location;lat;lon;timestamp;temperature;humidity
736;DHT22;352;48.626;9.238;2023-05-10T00:01:27;15.60;99.90
736;DHT22;352;48.626;9.238;2023-05-10T00:06:21;15.70;99.90
736;DHT22;352;48.626;9.238;2023-05-10T00:08:47;15.70;99.90
736;DHT22;352;48.626;9.238;2023-05-10T00:11:14;15.70;99.90
736;DHT22;352;48.626;9.238;2023-05-10T00:13:42;15.70;99.90
736;DHT22;352;48.626;9.238;2023-05-10T00:16:09;15.60;99.90
736;DHT22;352;48.626;9.238;2023-05-10T00:18:37;15.70;99.90
736;DHT22;352;48.626;9.238;2023-05-10T00:21:04;15.70;99.90
736;DHT22;352;48.626;9.238;2023-05-10T00:23:31;15.60;99.90
736;DHT22;352;48.626;9.238;2023-05-10T00:25:58;15.60;99.90
736;DHT22;352;48.626;9.238;2023-05-10T00:28:24;15.80;99.90
736;DHT22;352;48.626;9.238;2023-05-10T00:30:54;15.60;99.90
736;DHT22;352;48.626;9.238;2023-05-10T00:33:21;15.70;99.90
736;DHT22;352;48.626;9.238;2023-05-10T00:35:48;15.60;99.90
736;DHT22;352;48.626;9.238;2023-05-10T00:40:42;15.50;99.90
736;DHT22;352;48.626;9.238;2023-05-10T00:43:09;15.50;99.90
736;DHT22;352;48.626;9.238;2023-05-10T00:45:36;15.60;99.90
736;DHT22;352;48.626;9.238;2023-05-10T00:48:05;15.60;99.90
736;DHT22;352;48.626;9.238;2023-05-10T00:50:32;15.60;99.90
736;DHT22;352;48.626;9.238;2023-05-10T00:53:01;15.90;99.90
736;DHT22;352;48.626;9.238;2023-05-10T00:55:28;15.50;99.90
736;DHT22;352;48.626;9.238;2023-05-10T00:57:55;15.60;99.90
736;DHT22;352;48.626;9.238;2023-05-10T01:00:22;15.50;99.90
736;DHT22;352;48.626;9.238;2023-05-10T01:02:49;15.30;99.90
736;DHT22;352;48.626;9.238;2023-05-10T01:05:17;15.50;99.90
736;DHT22;352;48.626;9.238;2023-05-10T01:07:44;15.50;99.90
736;DHT22;352;48.626;9.238;2023-05-10T01:10:11;15.80;99.90
736;DHT22;352;48.626;9.238;2023-05-10T01:12:39;15.60;99.90
736;DHT22;352;48.626;9.238;2023-05-10T01:15:07;15.40;99.90
736;DHT22;352;48.626;9.238;2023-05-10T01:17:38;15.40;99.90
736;DHT22;352;48.626;9.238;2023-05-10T01:20:07;15.40;99.90
736;DHT22;352;48.626;9.238;2023-05-10T01:25:52;14.30;99.90
736;DHT22;352;48.626;9.238;2023-05-10T01:28:39;15.30;99.90
736;DHT22;352;48.626;9.238;2023-05-10T01:31:26;15.30;99.90
736;DHT22;352;48.626;9.238;2023-05-10T01:34:02;15.30;99.90
736;DHT22;352;48.626;9.238;2023-05-10T01:36:35;15.30;99.90
736;DHT22;352;48.626;9.238;2023-05-10T01:39:11;15.20;99.90
736;DHT22;352;48.626;9.238;2023-05-10T01:41:47;15.20;99.90
736;DHT22;352;48.626;9.238;2023-05-10T01:44:18;15.20;99.90
736;DHT22;352;48.626;9.238;2023-05-10T01:46:50;15.20;99.90
736;DHT22;352;48.626;9.238;2023-05-10T01:49:23;15.20;99.90
736;DHT22;352;48.626;9.238;2023-05-10T01:51:53;15.20;99.90
736;DHT22;352;48.626;9.238;2023-05-10T01:54:22;15.20;99.90
736;DHT22;352;48.626;9.238;2023-05-10T01:56:55;15.20;99.90
736;DHT22;352;48.626;9.238;2023-05-10T01:59:29;15.20;99.90
736;DHT22;352;48.626;9.238;2023-05-10T02:01:58;15.20;99.90
736;DHT22;352;48.626;9.238;2023-05-10T02:04:27;15.20;99.90
736;DHT22;352;48.626;9.238;2023-05-10T02:06:55;15.20;99.90
736;DHT22;352;48.626;9.238;2023-05-10T02:09:22;15.20;99.90
736;DHT22;352;48.626;9.238;2023-05-10T02:11:50;15.20;99.90
736;DHT22;352;48.626;9.238;2023-05-10T02:14:18;15.10;99.90
736;DHT22;352;48.626;9.238;2023-05-10T02:16:46;15.10;99.90
736;DHT22;352;48.626;9.238;2023-05-10T02:19:15;15.10;99.90
736;DHT22;352;48.626;9.238;2023-05-10T02:21:44;15.10;99.90
736;DHT22;352;48.626;9.238;2023-05-10T02:24:12;15.10;99.90
736;DHT22;352;48.626;9.238;2023-05-10T02:26:39;15.10;99.90
736;DHT22;352;48.626;9.238;2023-05-10T02:29:08;15.10;99.90
736;DHT22;352;48.626;9.238;2023-05-10T02:31:36;15.10;99.90
736;DHT22;352;48.626;9.238;2023-05-10T02:34:04;15.10;99.90
736;DHT22;352;48.626;9.238;2023-05-10T02:36:32;15.00;99.90
736;DHT22;352;48.626;9.238;2023-05-10T02:39:01;15.10;99.90
736;DHT22;352;48.626;9.238;2023-05-10T02:41:30;15.00;99.90
736;DHT22;352;48.626;9.238;2023-05-10T02:43:59;15.00;99.90
736;DHT22;352;48.626;9.238;2023-05-10T02:46:28;15.00;99.90
736;DHT22;352;48.626;9.238;2023-05-10T02:48:55;14.90;99.90
736;DHT22;352;48.626;9.238;2023-05-10T02:51:24;14.90;99.90
736;DHT22;352;48.626;9.238;2023-05-10T02:53:53;14.90;99.90
736;DHT22;352;48.626;9.238;2023-05-10T02:56:25;14.90;99.90
736;DHT22;352;48.626;9.238;2023-05-10T02:58:52;14.90;99.90
736;DHT22;352;48.626;9.238;2023-05-10T03:01:19;14.90;99.90
736;DHT22;352;48.626;9.238;2023-05-10T03:03:45;14.90;99.90
736;DHT22;352;48.626;9.238;2023-05-10T03:06:13;14.90;99.90
736;DHT22;352;48.626;9.238;2023-05-10T03:08:39;14.90;99.90
736;DHT22;352;48.626;9.238;2023-05-10T03:11:19;14.90;99.90
736;DHT22;352;48.626;9.238;2023-05-10T03:13:59;14.90;99.90
736;DHT22;352;48.626;9.238;2023-05-10T03:16:35;14.90;99.90
736;DHT22;352;48.626;9.238;2023-05-10T03:19:09;14.90;99.90
736;DHT22;352;48.626;9.238;2023-05-10T03:21:41;14.90;99.90
736;DHT22;352;48.626;9.238;2023-05-10T03:24:12;14.80;99.90
736;DHT22;352;48.626;9.238;2023-05-10T03:26:41;14.80;99.90
736;DHT22;352;48.626;9.238;2023-05-10T03:29:11;14.80;99.90
736;DHT22;352;48.626;9.238;2023-05-10T03:31:39;14.70;99.90
736;DHT22;352;48.626;9.238;2023-05-10T03:34:06;14.70;99.90
736;DHT22;352;48.626;9.238;2023-05-10T03:36:32;14.70;99.90
736;DHT22;352;48.626;9.238;2023-05-10T03:38:59;14.70;99.90
736;DHT22;352;48.626;9.238;2023-05-10T03:41:26;14.70;99.90
736;DHT22;352;48.626;9.238;2023-05-10T03:43:53;14.70;99.90
736;DHT22;352;48.626;9.238;2023-05-10T03:46:21;14.70;99.90
736;DHT22;352;48.626;9.238;2023-05-10T03:48:48;14.70;99.90
736;DHT22;352;48.626;9.238;2023-05-10T03:51:15;14.70;99.90
736;DHT22;352;48.626;9.238;2023-05-10T03:53:41;14.70;99.90
736;DHT22;352;48.626;9.238;2023-05-10T03:56:08;14.70;99.90
736;DHT22;352;48.626;9.238;2023-05-10T03:58:35;14.70;99.90
736;DHT22;352;48.626;9.238;2023-05-10T04:01:02;14.70;99.90
736;DHT22;352;48.626;9.238;2023-05-10T04:03:30;14.60;99.90
736;DHT22;352;48.626;9.238;2023-05-10T04:06:00;14.60;99.90
736;DHT22;352;48.626;9.238;2023-05-10T04:08:27;14.70;99.90
736;DHT22;352;48.626;9.238;2023-05-10T04:10:54;14.60;99.90
736;DHT22;352;48.626;9.238;2023-05-10T04:13:20;14.60;99.90
736;DHT22;352;48.626;9.238;2023-05-10T04:15:47;14.60;99.90
736;DHT22;352;48.626;9.238;2023-05-10T04:18:14;14.60;99.90
736;DHT22;352;48.626;9.238;2023-05-10T04:20:43;14.60;99.90
736;DHT22;352;48.626;9.238;2023-05-10T04:23:10;14.60;99.90
736;DHT22;352;48.626;9.238;2023-05-10T04:25:37;14.50;99.90
736;DHT22;352;48.626;9.238;2023-05-10T04:28:04;14.50;99.90
736;DHT22;352;48.626;9.238;2023-05-10T04:30:30;14.50;99.90
736;DHT22;352;48.626;9.238;2023-05-10T04:32:57;14.50;99.90
736;DHT22;352;48.626;9.238;2023-05-10T04:35:26;14.50;99.90
736;DHT22;352;48.626;9.238;2023-05-10T04:37:54;14.50;99.90
736;DHT22;352;48.626;9.238;2023-05-10T04:40:21;14.50;99.90
736;DHT22;352;48.626;9.238;2023-05-10T04:42:48;14.50;99.90
736;DHT22;352;48.626;9.238;2023-05-10T04:45:14;14.50;99.90
736;DHT22;352;48.626;9.238;2023-05-10T04:47:41;14.50;99.90
736;DHT22;352;48.626;9.238;2023-05-10T04:50:09;14.60;99.90
736;DHT22;352;48.626;9.238;2023-05-10T04:52:36;14.60;99.90
736;DHT22;352;48.626;9.238;2023-05-10T04:55:04;14.50;99.90
736;DHT22;352;48.626;9.238;2023-05-10T04:57:33;14.60;99.90
736;DHT22;352;48.626;9.238;2023-05-10T05:00:01;14.60;99.90
736;DHT22;352;48.626;9.238;2023-05-10T05:02:28;14.60;99.90
736;DHT22;352;48.626;9.238;2023-05-10T05:04:56;14.60;99.90
736;DHT22;352;48.626;9.238;2023-05-10T05:07:24;14.60;99.90
736;DHT22;352;48.626;9.238;2023-05-10T05:09:50;14.60;99.90
736;DHT22;352;48.626;9.238;2023-05-10T05:12:18;14.60;99.90
736;DHT22;352;48.626;9.238;2023-05-10T05:14:45;14.70;99.90
736;DHT22;352;48.626;9.238;2023-05-10T05:17:12;14.70;99.90
736;DHT22;352;48.626;9.238;2023-05-10T05:19:39;14.70;99.90
736;DHT22;352;48.626;9.238;2023-05-10T05:22:06;14.80;99.90
736;DHT22;352;48.626;9.238;2023-05-10T05:24:35;14.80;99.90
736;DHT22;352;48.626;9.238;2023-05-10T05:27:03;14.80;99.90
736;DHT22;352;48.626;9.238;2023-05-10T05:29:32;14.90;99.90
736;DHT22;352;48.626;9.238;2023-05-10T05:31:59;14.90;99.90
736;DHT22;352;48.626;9.238;2023-05-10T05:34:26;14.90;99.90
736;DHT22;352;48.626;9.238;2023-05-10T05:36:52;15.00;99.90
736;DHT22;352;48.626;9.238;2023-05-10T05:39:19;15.00;99.90
736;DHT22;352;48.626;9.238;2023-05-10T05:41:46;15.00;99.90
736;DHT22;352;48.626;9.238;2023-05-10T05:44:12;15.00;99.90
736;DHT22;352;48.626;9.238;2023-05-10T05:46:40;15.10;99.90
736;DHT22;352;48.626;9.238;2023-05-10T05:49:07;15.10;99.90
736;DHT22;352;48.626;9.238;2023-05-10T05:51:34;15.10;99.90
736;DHT22;352;48.626;9.238;2023-05-10T05:54:01;15.00;99.90
736;DHT22;352;48.626;9.238;2023-05-10T05:56:29;15.00;99.90
736;DHT22;352;48.626;9.238;2023-05-10T05:58:56;15.10;99.90
736;DHT22;352;48.626;9.238;2023-05-10T06:01:23;15.10;99.90
736;DHT22;352;48.626;9.238;2023-05-10T06:03:51;15.20;99.90
736;DHT22;352;48.626;9.238;2023-05-10T06:06:17;15.20;99.90
736;DHT22;352;48.626;9.238;2023-05-10T06:08:44;15.20;99.90
736;DHT22;352;48.626;9.238;2023-05-10T06:11:11;15.30;99.90
736;DHT22;352;48.626;9.238;2023-05-10T06:13:37;15.30;99.90
736;DHT22;352;48.626;9.238;2023-05-10T06:16:04;15.30;99.90
736;DHT22;352;48.626;9.238;2023-05-10T06:18:31;15.30;99.90
736;DHT22;352;48.626;9.238;2023-05-10T06:20:59;15.40;99.90
736;DHT22;352;48.626;9.238;2023-05-10T06:23:26;15.30;99.90
736;DHT22;352;48.626;9.238;2023-05-10T06:25:53;15.30;99.90
736;DHT22;352;48.626;9.238;2023-05-10T06:28:19;15.40;99.90
736;DHT22;352;48.626;9.238;2023-05-10T06:30:46;15.40;99.90
736;DHT22;352;48.626;9.238;2023-05-10T06:33:13;15.50;99.90
736;DHT22;352;48.626;9.238;2023-05-10T06:35:41;15.50;99.90
736;DHT22;352;48.626;9.238;2023-05-10T06:38:09;15.50;99.90
736;DHT22;352;48.626;9.238;2023-05-10T06:40:36;15.50;99.90
736;DHT22;352;48.626;9.238;2023-05-10T06:43:03;15.50;99.90
736;DHT22;352;48.626;9.238;2023-05-10T06:45:30;15.60;99.90
736;DHT22;352;48.626;9.238;2023-05-10T06:47:56;15.60;99.90
736;DHT22;352;48.626;9.238;2023-05-10T06:50:23;15.60;99.90
736;DHT22;352;48.626;9.238;2023-05-10T06:52:50;15.60;99.90
736;DHT22;352;48.626;9.238;2023-05-10T06:55:18;15.60;99.90
736;DHT22;352;48.626;9.238;2023-05-10T06:57:45;15.60;99.90
736;DHT22;352;48.626;9.238;2023-05-10T07:00:13;15.70;99.90
736;DHT22;352;48.626;9.238;2023-05-10T07:02:40;15.70;99.90
736;DHT22;352;48.626;9.238;2023-05-10T07:05:08;15.70;99.90
736;DHT22;352;48.626;9.238;2023-05-10T07:07:35;15.80;99.90
736;DHT22;352;48.626;9.238;2023-05-10T07:10:01;15.80;99.90
736;DHT22;352;48.626;9.238;2023-05-10T07:12:30;15.90;99.90
736;DHT22;352;48.626;9.238;2023-05-10T07:14:57;15.90;99.90
736;DHT22;352;48.626;9.238;2023-05-10T07:17:23;16.00;99.90
736;DHT22;352;48.626;9.238;2023-05-10T07:19:50;16.00;99.90
736;DHT22;352;48.626;9.238;2023-05-10T07:22:17;16.10;99.90
736;DHT22;352;48.626;9.238;2023-05-10T07:24:44;16.10;99.90
736;DHT22;352;48.626;9.238;2023-05-10T07:27:10;16.20;99.90
736;DHT22;352;48.626;9.238;2023-05-10T07:29:39;16.20;99.90
736;DHT22;352;48.626;9.238;2023-05-10T07:32:06;16.30;99.90
736;DHT22;352;48.626;9.238;2023-05-10T07:34:33;16.30;99.90
736;DHT22;352;48.626;9.238;2023-05-10T07:36:59;16.30;99.90
736;DHT22;352;48.626;9.238;2023-05-10T07:39:26;16.40;99.90
736;DHT22;352;48.626;9.238;2023-05-10T07:41:53;16.40;99.90
736;DHT22;352;48.626;9.238;2023-05-10T07:44:20;16.40;99.90
736;DHT22;352;48.626;9.238;2023-05-10T07:46:48;16.40;99.90
736;DHT22;352;48.626;9.238;2023-05-10T07:49:16;16.30;99.90
736;DHT22;352;48.626;9.238;2023-05-10T07:51:42;16.40;99.90
736;DHT22;352;48.626;9.238;2023-05-10T07:54:09;16.40;99.90
736;DHT22;352;48.626;9.238;2023-05-10T07:56:36;16.50;99.90
736;DHT22;352;48.626;9.238;2023-05-10T07:59:03;16.40;99.90
736;DHT22;352;48.626;9.238;2023-05-10T08:01:31;16.50;99.90
736;DHT22;352;48.626;9.238;2023-05-10T08:04:00;16.50;99.90
736;DHT22;352;48.626;9.238;2023-05-10T08:06:27;16.50;99.90
736;DHT22;352;48.626;9.238;2023-05-10T08:08:55;16.50;99.90
736;DHT22;352;48.626;9.238;2023-05-10T08:11:23;16.50;99.90
736;DHT22;352;48.626;9.238;2023-05-10T08:13:50;16.40;99.90
736;DHT22;352;48.626;9.238;2023-05-10T08:16:17;16.40;99.90
736;DHT22;352;48.626;9.238;2023-05-10T08:18:45;16.40;99.90
736;DHT22;352;48.626;9.238;2023-05-10T08:21:14;16.40;99.90
736;DHT22;352;48.626;9.238;2023-05-10T08:23:41;16.50;99.90
736;DHT22;352;48.626;9.238;2023-05-10T08:26:09;16.50;99.90
736;DHT22;352;48.626;9.238;2023-05-10T08:28:36;16.50;99.90
736;DHT22;352;48.626;9.238;2023-05-10T08:31:02;16.50;99.90
736;DHT22;352;48.626;9.238;2023-05-10T08:33:29;16.50;99.90
736;DHT22;352;48.626;9.238;2023-05-10T08:35:56;16.50;99.90
736;DHT22;352;48.626;9.238;2023-05-10T08:38:24;16.50;99.90
736;DHT22;352;48.626;9.238;2023-05-10T08:40:53;16.60;99.90
736;DHT22;352;48.626;9.238;2023-05-10T08:43:22;16.60;99.90
736;DHT22;352;48.626;9.238;2023-05-10T08:45:53;16.60;99.90
736;DHT22;352;48.626;9.238;2023-05-10T08:48:22;16.70;99.90
736;DHT22;352;48.626;9.238;2023-05-10T08:50:53;16.70;99.90
736;DHT22;352;48.626;9.238;2023-05-10T08:53:21;16.70;99.90
736;DHT22;352;48.626;9.238;2023-05-10T08:55:50;16.80;99.90
736;DHT22;352;48.626;9.238;2023-05-10T08:58:17;17.20;99.90
736;DHT22;352;48.626;9.238;2023-05-10T09:00:46;16.90;99.90
736;DHT22;352;48.626;9.238;2023-05-10T09:03:13;16.90;99.90
736;DHT22;352;48.626;9.238;2023-05-10T09:05:41;16.90;99.90
736;DHT22;352;48.626;9.238;2023-05-10T09:08:08;17.00;99.90
736;DHT22;352;48.626;9.238;2023-05-10T09:10:35;17.00;99.90
736;DHT22;352;48.626;9.238;2023-05-10T09:13:05;17.10;99.90
736;DHT22;352;48.626;9.238;2023-05-10T09:15:32;17.10;99.90
736;DHT22;352;48.626;9.238;2023-05-10T09:17:58;17.10;99.90
736;DHT22;352;48.626;9.238;2023-05-10T09:20:27;17.20;99.90
736;DHT22;352;48.626;9.238;2023-05-10T09:22:54;17.10;99.90
736;DHT22;352;48.626;9.238;2023-05-10T09:25:21;17.10;99.90
736;DHT22;352;48.626;9.238;2023-05-10T09:27:48;17.10;99.90
736;DHT22;352;48.626;9.238;2023-05-10T09:30:17;17.20;99.90
736;DHT22;352;48.626;9.238;2023-05-10T09:32:46;17.20;99.90
736;DHT22;352;48.626;9.238;2023-05-10T09:35:14;17.20;99.90
736;DHT22;352;48.626;9.238;2023-05-10T09:37:43;17.20;99.90
736;DHT22;352;48.626;9.238;2023-05-10T09:40:12;17.40;99.90
736;DHT22;352;48.626;9.238;2023-05-10T09:42:41;17.40;99.90
736;DHT22;352;48.626;9.238;2023-05-10T09:45:09;17.50;99.90
736;DHT22;352;48.626;9.238;2023-05-10T09:47:37;17.50;99.90
736;DHT22;352;48.626;9.238;2023-05-10T09:50:05;17.50;99.90
736;DHT22;352;48.626;9.238;2023-05-10T09:52:46;17.50;99.90
736;DHT22;352;48.626;9.238;2023-05-10T09:55:13;17.40;99.90
736;DHT22;352;48.626;9.238;2023-05-10T09:57:40;17.40;99.90
736;DHT22;352;48.626;9.238;2023-05-10T10:00:08;17.40;99.90
736;DHT22;352;48.626;9.238;2023-05-10T10:02:36;17.40;99.90
736;DHT22;352;48.626;9.238;2023-05-10T10:05:04;17.40;99.90
736;DHT22;352;48.626;9.238;2023-05-10T10:07:33;17.50;99.90
736;DHT22;352;48.626;9.238;2023-05-10T10:10:00;17.40;99.90
736;DHT22;352;48.626;9.238;2023-05-10T10:12:27;17.50;99.90
736;DHT22;352;48.626;9.238;2023-05-10T10:14:55;17.50;99.90
736;DHT22;352;48.626;9.238;2023-05-10T10:17:24;17.40;99.90
736;DHT22;352;48.626;9.238;2023-05-10T10:19:53;17.50;99.90
736;DHT22;352;48.626;9.238;2023-05-10T10:22:20;17.50;99.90
736;DHT22;352;48.626;9.238;2023-05-10T10:24:47;17.50;99.90
736;DHT22;352;48.626;9.238;2023-05-10T10:27:21;17.50;99.90
736;DHT22;352;48.626;9.238;2023-05-10T10:29:58;17.60;99.90
736;DHT22;352;48.626;9.238;2023-05-10T10:32:32;17.60;99.90
736;DHT22;352;48.626;9.238;2023-05-10T10:35:03;17.70;99.90
736;DHT22;352;48.626;9.238;2023-05-10T10:37:46;17.70;99.90
736;DHT22;352;48.626;9.238;2023-05-10T10:40:24;17.80;99.90
736;DHT22;352;48.626;9.238;2023-05-10T10:42:51;17.80;99.90
736;DHT22;352;48.626;9.238;2023-05-10T10:45:19;17.70;99.90
736;DHT22;352;48.626;9.238;2023-05-10T10:47:46;17.60;99.90
736;DHT22;352;48.626;9.238;2023-05-10T10:50:15;17.70;99.90
736;DHT22;352;48.626;9.238;2023-05-10T10:52:42;17.60;99.90
736;DHT22;352;48.626;9.238;2023-05-10T10:55:10;17.60;99.90
736;DHT22;352;48.626;9.238;2023-05-10T10:57:48;17.60;99.90
736;DHT22;352;48.626;9.238;2023-05-10T11:00:25;17.50;99.90
736;DHT22;352;48.626;9.238;2023-05-10T11:02:55;17.50;99.90
736;DHT22;352;48.626;9.238;2023-05-10T11:05:45;17.40;99.90
736;DHT22;352;48.626;9.238;2023-05-10T11:08:15;17.40;99.90
736;DHT22;352;48.626;9.238;2023-05-10T11:11:04;17.40;99.90
736;DHT22;352;48.626;9.238;2023-05-10T11:13:34;17.40;99.90
736;DHT22;352;48.626;9.238;2023-05-10T11:16:13;17.30;99.90
736;DHT22;352;48.626;9.238;2023-05-10T11:18:45;17.20;99.90
736;DHT22;352;48.626;9.238;2023-05-10T11:21:19;17.10;99.90
736;DHT22;352;48.626;9.238;2023-05-10T11:23:50;16.90;99.90
736;DHT22;352;48.626;9.238;2023-05-10T11:26:18;16.80;99.90
736;DHT22;352;48.626;9.238;2023-05-10T11:28:47;16.70;99.90
736;DHT22;352;48.626;9.238;2023-05-10T11:31:14;16.60;99.90
736;DHT22;352;48.626;9.238;2023-05-10T11:33:44;16.50;99.90
736;DHT22;352;48.626;9.238;2023-05-10T11:36:12;16.40;99.90
736;DHT22;352;48.626;9.238;2023-05-10T11:38:40;16.30;99.90
736;DHT22;352;48.626;9.238;2023-05-10T11:41:08;16.20;99.90
736;DHT22;352;48.626;9.238;2023-05-10T11:43:37;16.20;99.90
736;DHT22;352;48.626;9.238;2023-05-10T11:46:05;16.10;99.90
736;DHT22;352;48.626;9.238;2023-05-10T11:48:32;16.10;99.90
736;DHT22;352;48.626;9.238;2023-05-10T11:51:00;16.00;99.90
736;DHT22;352;48.626;9.238;2023-05-10T11:53:27;16.00;99.90
736;DHT22;352;48.626;9.238;2023-05-10T11:56:02;16.00;99.90
736;DHT22;352;48.626;9.238;2023-05-10T11:58:30;16.00;99.90
736;DHT22;352;48.626;9.238;2023-05-10T12:00:57;16.00;99.90
736;DHT22;352;48.626;9.238;2023-05-10T12:03:24;16.00;99.90
736;DHT22;352;48.626;9.238;2023-05-10T12:05:51;16.00;99.90
736;DHT22;352;48.626;9.238;2023-05-10T12:08:21;16.10;99.90
736;DHT22;352;48.626;9.238;2023-05-10T12:10:48;16.10;99.90
736;DHT22;352;48.626;9.238;2023-05-10T12:13:17;16.20;99.90
736;DHT22;352;48.626;9.238;2023-05-10T12:15:44;16.20;99.90
736;DHT22;352;48.626;9.238;2023-05-10T12:18:11;16.20;99.90
736;DHT22;352;48.626;9.238;2023-05-10T12:20:38;16.20;99.90
736;DHT22;352;48.626;9.238;2023-05-10T12:23:05;16.30;99.90
736;DHT22;352;48.626;9.238;2023-05-10T12:25:35;16.40;99.90
736;DHT22;352;48.626;9.238;2023-05-10T12:28:04;16.40;99.90
736;DHT22;352;48.626;9.238;2023-05-10T12:30:33;16.50;99.90
736;DHT22;352;48.626;9.238;2023-05-10T12:33:01;16.60;99.90
736;DHT22;352;48.626;9.238;2023-05-10T12:35:30;16.60;99.90
736;DHT22;352;48.626;9.238;2023-05-10T12:37:57;16.60;99.90
736;DHT22;352;48.626;9.238;2023-05-10T12:40:24;16.60;99.90
736;DHT22;352;48.626;9.238;2023-05-10T12:42:51;16.60;99.90
736;DHT22;352;48.626;9.238;2023-05-10T12:45:18;16.70;99.90
736;DHT22;352;48.626;9.238;2023-05-10T12:47:46;16.60;99.90
736;DHT22;352;48.626;9.238;2023-05-10T12:50:13;16.60;99.90
736;DHT22;352;48.626;9.238;2023-05-10T12:52:39;16.50;99.90
736;DHT22;352;48.626;9.238;2023-05-10T12:55:07;16.50;99.90
736;DHT22;352;48.626;9.238;2023-05-10T12:57:33;16.60;99.90
736;DHT22;352;48.626;9.238;2023-05-10T13:00:00;16.70;99.90
736;DHT22;352;48.626;9.238;2023-05-10T13:02:27;16.80;99.90
736;DHT22;352;48.626;9.238;2023-05-10T13:04:55;16.90;99.90
736;DHT22;352;48.626;9.238;2023-05-10T13:07:21;16.90;99.90
736;DHT22;352;48.626;9.238;2023-05-10T13:09:48;17.00;99.90
736;DHT22;352;48.626;9.238;2023-05-10T13:12:15;17.10;99.90
736;DHT22;352;48.626;9.238;2023-05-10T13:14:42;17.20;99.90
736;DHT22;352;48.626;9.238;2023-05-10T13:17:08;17.20;99.90
736;DHT22;352;48.626;9.238;2023-05-10T13:19:35;17.20;99.90
736;DHT22;352;48.626;9.238;2023-05-10T13:22:03;17.30;99.90
736;DHT22;352;48.626;9.238;2023-05-10T13:24:30;17.40;99.90
736;DHT22;352;48.626;9.238;2023-05-10T13:26:56;17.40;99.90
736;DHT22;352;48.626;9.238;2023-05-10T13:29:23;17.40;99.90
736;DHT22;352;48.626;9.238;2023-05-10T13:31:50;17.40;99.90
736;DHT22;352;48.626;9.238;2023-05-10T13:34:16;17.40;99.90
736;DHT22;352;48.626;9.238;2023-05-10T13:36:46;17.40;99.90
736;DHT22;352;48.626;9.238;2023-05-10T13:39:14;17.40;99.90
736;DHT22;352;48.626;9.238;2023-05-10T13:41:40;17.50;99.90
736;DHT22;352;48.626;9.238;2023-05-10T13:44:07;17.50;99.90
736;DHT22;352;48.626;9.238;2023-05-10T13:46:34;17.60;99.90
736;DHT22;352;48.626;9.238;2023-05-10T13:49:01;17.60;99.90
736;DHT22;352;48.626;9.238;2023-05-10T13:51:27;17.60;99.90
736;DHT22;352;48.626;9.238;2023-05-10T13:53:54;17.60;99.90
736;DHT22;352;48.626;9.238;2023-05-10T13:56:22;17.60;99.90
736;DHT22;352;48.626;9.238;2023-05-10T13:58:49;17.60;99.90
736;DHT22;352;48.626;9.238;2023-05-10T14:01:15;17.60;99.90
736;DHT22;352;48.626;9.238;2023-05-10T14:03:42;17.60;99.90
736;DHT22;352;48.626;9.238;2023-05-10T14:06:09;17.60;99.90
736;DHT22;352;48.626;9.238;2023-05-10T14:08:36;17.50;99.90
736;DHT22;352;48.626;9.238;2023-05-10T14:11:02;17.50;99.90
736;DHT22;352;48.626;9.238;2023-05-10T14:13:31;17.50;99.90
736;DHT22;352;48.626;9.238;2023-05-10T14:15:58;17.50;99.90
736;DHT22;352;48.626;9.238;2023-05-10T14:18:26;17.50;99.90
736;DHT22;352;48.626;9.238;2023-05-10T14:20:52;17.60;99.90
736;DHT22;352;48.626;9.238;2023-05-10T14:23:19;17.60;99.90
736;DHT22;352;48.626;9.238;2023-05-10T14:25:49;17.50;99.90
736;DHT22;352;48.626;9.238;2023-05-10T14:28:16;17.60;99.90
736;DHT22;352;48.626;9.238;2023-05-10T14:30:45;17.60;99.90
736;DHT22;352;48.626;9.238;2023-05-10T14:33:11;17.60;99.90
736;DHT22;352;48.626;9.238;2023-05-10T14:35:38;17.70;99.90
736;DHT22;352;48.626;9.238;2023-05-10T14:38:05;17.80;99.90
736;DHT22;352;48.626;9.238;2023-05-10T14:40:32;17.70;99.90
736;DHT22;352;48.626;9.238;2023-05-10T14:42:58;17.70;99.90
736;DHT22;352;48.626;9.238;2023-05-10T14:45:25;17.70;99.90
736;DHT22;352;48.626;9.238;2023-05-10T14:47:53;17.70;99.90
736;DHT22;352;48.626;9.238;2023-05-10T14:50:20;17.70;99.90
736;DHT22;352;48.626;9.238;2023-05-10T14:52:47;17.70;99.90
736;DHT22;352;48.626;9.238;2023-05-10T14:55:14;17.70;99.90
736;DHT22;352;48.626;9.238;2023-05-10T14:57:41;17.70;99.90
736;DHT22;352;48.626;9.238;2023-05-10T15:00:10;17.70;99.90
736;DHT22;352;48.626;9.238;2023-05-10T15:02:37;17.70;99.90
736;DHT22;352;48.626;9.238;2023-05-10T15:05:06;17.70;99.90
736;DHT22;352;48.626;9.238;2023-05-10T15:07:32;17.60;99.90
736;DHT22;352;48.626;9.238;2023-05-10T15:09:59;17.60;99.90
736;DHT22;352;48.626;9.238;2023-05-10T15:12:26;17.60;99.90
736;DHT22;352;48.626;9.238;2023-05-10T15:14:53;17.60;99.90
736;DHT22;352;48.626;9.238;2023-05-10T15:17:20;17.60;99.90
736;DHT22;352;48.626;9.238;2023-05-10T15:19:46;17.50;99.90
736;DHT22;352;48.626;9.238;2023-05-10T15:22:15;17.60;99.90
736;DHT22;352;48.626;9.238;2023-05-10T15:24:42;17.60;99.90
736;DHT22;352;48.626;9.238;2023-05-10T15:27:09;17.50;99.90
736;DHT22;352;48.626;9.238;2023-05-10T15:29:35;17.50;99.90
736;DHT22;352;48.626;9.238;2023-05-10T15:32:02;17.50;99.90
736;DHT22;352;48.626;9.238;2023-05-10T15:34:29;17.50;99.90
736;DHT22;352;48.626;9.238;2023-05-10T15:36:56;17.50;99.90
736;DHT22;352;48.626;9.238;2023-05-10T15:39:24;17.50;99.90
736;DHT22;352;48.626;9.238;2023-05-10T15:41:50;17.50;99.90
736;DHT22;352;48.626;9.238;2023-05-10T15:44:17;17.50;99.90
736;DHT22;352;48.626;9.238;2023-05-10T15:46:44;17.50;99.90
736;DHT22;352;48.626;9.238;2023-05-10T15:49:11;17.40;99.90
736;DHT22;352;48.626;9.238;2023-05-10T15:51:37;17.40;99.90
736;DHT22;352;48.626;9.238;2023-05-10T15:54:04;17.40;99.90
736;DHT22;352;48.626;9.238;2023-05-10T15:56:33;17.40;99.90
736;DHT22;352;48.626;9.238;2023-05-10T15:59:00;17.40;99.90
736;DHT22;352;48.626;9.238;2023-05-10T16:01:26;17.40;99.90
736;DHT22;352;48.626;9.238;2023-05-10T16:03:55;17.40;99.90
736;DHT22;352;48.626;9.238;2023-05-10T16:06:21;17.50;99.90
736;DHT22;352;48.626;9.238;2023-05-10T16:08:48;17.50;99.90
736;DHT22;352;48.626;9.238;2023-05-10T16:11:15;17.50;99.90
736;DHT22;352;48.626;9.238;2023-05-10T16:13:43;17.40;99.90
736;DHT22;352;48.626;9.238;2023-05-10T16:16:10;17.40;99.90
736;DHT22;352;48.626;9.238;2023-05-10T16:18:36;17.30;99.90
736;DHT22;352;48.626;9.238;2023-05-10T16:21:03;17.30;99.90
736;DHT22;352;48.626;9.238;2023-05-10T16:23:30;17.30;99.90
736;DHT22;352;48.626;9.238;2023-05-10T16:25:56;17.30;99.90
736;DHT22;352;48.626;9.238;2023-05-10T16:28:23;17.20;99.90
736;DHT22;352;48.626;9.238;2023-05-10T16:30:51;17.10;99.90
736;DHT22;352;48.626;9.238;2023-05-10T16:33:18;17.10;99.90
736;DHT22;352;48.626;9.238;2023-05-10T16:35:45;17.00;99.90
736;DHT22;352;48.626;9.238;2023-05-10T16:38:11;17.00;99.90
736;DHT22;352;48.626;9.238;2023-05-10T16:40:39;17.00;99.90
736;DHT22;352;48.626;9.238;2023-05-10T16:43:06;17.00;99.90
736;DHT22;352;48.626;9.238;2023-05-10T16:45:32;16.90;99.90
736;DHT22;352;48.626;9.238;2023-05-10T16:48:00;16.90;99.90